createdAt,value
2023-02-21T00:02:44.824Z,55.40
2023-02-21T00:05:30.246Z,55.02
2023-02-21T00:08:15.652Z,55.59
2023-02-21T00:11:01.173Z,55.42
2023-02-21T00:13:46.507Z,55.48
2023-02-21T00:16:36.068Z,55.26
2023-02-21T00:19:21.930Z,55.46
2023-02-21T00:22:07.334Z,55.33
2023-02-21T00:24:52.779Z,55.26
2023-02-21T00:27:38.052Z,54.90
2023-02-21T00:30:24.713Z,54.84
2023-02-21T00:33:10.284Z,54.71
2023-02-21T00:35:55.627Z,54.74
2023-02-21T00:38:41.087Z,55.07
2023-02-21T00:41:26.756Z,55.22
2023-02-21T00:44:12.230Z,55.20
2023-02-21T00:46:57.933Z,55.02
2023-02-21T00:49:43.486Z,55.31
2023-02-21T00:52:29.391Z,55.27
2023-02-21T00:55:14.805Z,55.27
2023-02-21T00:58:00.195Z,55.31
2023-02-21T01:00:45.512Z,55.28
2023-02-21T01:03:31.192Z,54.90
2023-02-21T01:06:16.610Z,54.79
2023-02-21T01:09:03.457Z,55.10
2023-02-21T01:11:50.940Z,55.28
2023-02-21T01:14:36.753Z,55.21
2023-02-21T01:17:21.996Z,55.10
2023-02-21T01:20:07.310Z,55.08
2023-02-21T01:22:53.198Z,55.57
2023-02-21T01:25:39.200Z,55.23
2023-02-21T01:28:24.732Z,55.52
2023-02-21T01:31:10.026Z,55.90
2023-02-21T01:33:59.637Z,55.27
2023-02-21T01:36:46.078Z,55.53
2023-02-21T01:39:32.490Z,55.22
2023-02-21T01:42:18.300Z,55.21
2023-02-21T01:45:06.648Z,55.16
2023-02-21T01:47:52.421Z,55.51
2023-02-21T01:50:41.410Z,55.08
2023-02-21T01:53:37.237Z,55.08
2023-02-21T01:56:23.936Z,54.94
2023-02-21T01:59:12.322Z,54.93
2023-02-21T02:02:09.896Z,54.48
2023-02-21T02:04:56.505Z,54.89
2023-02-21T02:07:42.645Z,54.46
2023-02-21T02:10:30.048Z,54.81
2023-02-21T02:12:59.848Z,54.88
2023-02-21T02:15:50.490Z,54.55
2023-02-21T02:18:33.382Z,54.72
2023-02-21T02:21:26.394Z,54.54
2023-02-21T02:24:23.672Z,54.47
2023-02-21T02:27:12.185Z,54.71
2023-02-21T02:29:42.379Z,54.39
2023-02-21T02:32:24.357Z,54.15
2023-02-21T02:35:04.967Z,54.44
2023-02-21T02:37:45.291Z,54.43
2023-02-21T02:40:24.456Z,54.51
2023-02-21T02:43:17.506Z,54.13
2023-02-21T02:45:52.025Z,54.20
2023-02-21T02:48:43.926Z,54.42
2023-02-21T02:51:14.248Z,54.39
2023-02-21T02:53:41.712Z,54.33
2023-02-21T02:56:13.340Z,54.33
2023-02-21T02:59:01.309Z,54.68
2023-02-21T03:01:58.259Z,54.20
2023-02-21T03:05:07.209Z,54.20
2023-02-21T03:07:51.144Z,54.30
2023-02-21T03:10:34.499Z,54.49
2023-02-21T03:13:16.679Z,54.51
2023-02-21T03:15:52.800Z,54.21
2023-02-21T03:18:31.992Z,54.63
2023-02-21T03:21:00.841Z,54.56
2023-02-21T03:23:30.032Z,54.15
2023-02-21T03:26:02.981Z,54.40
2023-02-21T03:28:31.380Z,54.17
2023-02-21T03:31:00.028Z,54.23
2023-02-21T03:33:28.595Z,54.28
2023-02-21T03:35:55.530Z,54.27
2023-02-21T03:38:22.276Z,53.95
2023-02-21T03:40:49.578Z,53.97
2023-02-21T03:43:16.368Z,53.93
2023-02-21T03:45:49.830Z,54.09
2023-02-21T03:48:31.071Z,54.27
2023-02-21T03:51:01.788Z,53.98
2023-02-21T03:53:34.249Z,54.17
2023-02-21T03:56:02.865Z,54.49
2023-02-21T03:58:40.163Z,54.21
2023-02-21T04:01:07.888Z,54.84
2023-02-21T04:03:34.717Z,54.59
2023-02-21T04:06:04.178Z,54.87
2023-02-21T04:08:31.712Z,54.72
2023-02-21T04:10:58.613Z,54.64
2023-02-21T04:13:29.595Z,54.59
2023-02-21T04:15:59.071Z,55.09
2023-02-21T04:18:25.988Z,54.76
2023-02-21T04:20:56.327Z,54.97
2023-02-21T04:23:23.402Z,54.65
2023-02-21T04:25:50.367Z,54.79
2023-02-21T04:28:24.830Z,54.71
2023-02-21T04:30:51.614Z,54.67
2023-02-21T04:33:19.335Z,54.77
2023-02-21T04:35:46.165Z,54.79
2023-02-21T04:38:22.117Z,54.94
2023-02-21T04:40:48.920Z,54.97
2023-02-21T04:43:15.655Z,54.78
2023-02-21T04:45:42.382Z,55.01
2023-02-21T04:48:09.152Z,55.22
2023-02-21T04:50:35.915Z,55.32
2023-02-21T04:53:02.652Z,55.41
2023-02-21T04:55:29.469Z,55.41
2023-02-21T04:57:56.108Z,55.88
2023-02-21T05:00:23.807Z,55.88
2023-02-21T05:02:50.546Z,56.34
2023-02-21T05:05:17.533Z,56.25
2023-02-21T05:07:44.508Z,55.92
2023-02-21T05:10:11.817Z,55.82
2023-02-21T05:12:41.863Z,55.43
2023-02-21T05:15:09.542Z,55.63
2023-02-21T05:17:36.323Z,55.05
2023-02-21T05:20:04.216Z,54.94
2023-02-21T05:22:30.949Z,54.89
2023-02-21T05:24:57.635Z,54.90
2023-02-21T05:27:24.260Z,54.53
2023-02-21T05:29:52.635Z,54.49
2023-02-21T05:32:20.946Z,54.31
2023-02-21T05:34:47.967Z,54.08
2023-02-21T05:37:15.564Z,54.33
2023-02-21T05:39:42.544Z,54.18
2023-02-21T05:42:09.460Z,54.18
2023-02-21T05:44:36.358Z,53.91
2023-02-21T05:47:03.508Z,53.85
2023-02-21T05:49:30.338Z,53.86
2023-02-21T05:51:57.044Z,53.72
2023-02-21T05:54:23.789Z,54.06
2023-02-21T05:56:51.581Z,53.90
2023-02-21T05:59:20.215Z,53.94
2023-02-21T06:01:47.664Z,53.81
2023-02-21T06:04:14.458Z,53.91
2023-02-21T06:06:41.783Z,53.90
2023-02-21T06:09:08.821Z,53.92
2023-02-21T06:11:37.787Z,53.76
2023-02-21T06:14:07.614Z,54.24
2023-02-21T06:16:36.132Z,54.11
2023-02-21T06:19:05.484Z,54.18
2023-02-21T06:21:32.425Z,53.87
2023-02-21T06:23:59.630Z,54.05
2023-02-21T06:26:26.480Z,53.94
2023-02-21T06:28:53.180Z,53.69
2023-02-21T06:31:20.525Z,53.42
2023-02-21T06:33:48.426Z,53.36
2023-02-21T06:36:19.212Z,53.28
2023-02-21T06:38:51.752Z,53.35
2023-02-21T06:41:27.229Z,53.35
2023-02-21T06:43:54.866Z,53.67
2023-02-21T06:46:24.320Z,53.68
2023-02-21T06:48:51.334Z,53.76
2023-02-21T06:51:18.555Z,53.72
2023-02-21T06:53:48.959Z,53.30
2023-02-21T06:56:15.814Z,53.22
2023-02-21T06:58:42.474Z,53.60
2023-02-21T07:01:09.205Z,54.01
2023-02-21T07:03:39.633Z,55.45
2023-02-21T07:06:06.471Z,55.68
2023-02-21T07:08:33.436Z,56.05
2023-02-21T07:11:00.363Z,57.06
2023-02-21T07:13:27.097Z,57.17
2023-02-21T07:15:53.920Z,57.61
2023-02-21T07:18:20.659Z,57.95
2023-02-21T07:20:47.493Z,57.99
2023-02-21T07:23:14.135Z,58.21
2023-02-21T07:25:40.912Z,58.38
2023-02-21T07:28:07.856Z,58.44
2023-02-21T07:30:35.411Z,58.43
2023-02-21T07:33:02.197Z,58.85
2023-02-21T07:35:29.049Z,59.23
2023-02-21T07:37:55.832Z,59.21
2023-02-21T07:40:22.663Z,59.57
2023-02-21T07:42:49.480Z,59.86
2023-02-21T07:45:17.140Z,59.76
2023-02-21T07:47:47.885Z,59.48
2023-02-21T07:50:16.179Z,59.57
2023-02-21T07:52:45.937Z,59.22
2023-02-21T07:55:14.155Z,59.82
2023-02-21T07:57:41.087Z,59.67
2023-02-21T08:00:08.781Z,59.60
2023-02-21T08:02:41.316Z,59.91
2023-02-21T08:05:09.487Z,59.72
2023-02-21T08:07:36.212Z,60.21
2023-02-21T08:10:04.061Z,60.38
2023-02-21T08:12:30.813Z,60.08
2023-02-21T08:14:57.770Z,60.15
2023-02-21T08:17:25.319Z,60.65
2023-02-21T08:19:52.070Z,60.40
2023-02-21T08:22:19.242Z,60.83
2023-02-21T08:24:46.565Z,60.54
2023-02-21T08:27:13.371Z,60.61
2023-02-21T08:29:40.679Z,60.96
2023-02-21T08:32:07.485Z,60.73
2023-02-21T08:34:34.257Z,61.26
2023-02-21T08:37:01.023Z,61.25
2023-02-21T08:39:30.230Z,61.45
2023-02-21T08:41:57.001Z,61.42
2023-02-21T08:44:23.766Z,61.29
2023-02-21T08:46:50.623Z,61.62
2023-02-21T08:49:17.750Z,61.66
2023-02-21T08:51:44.469Z,61.31
2023-02-21T08:54:11.241Z,61.49
2023-02-21T08:56:37.988Z,61.78
2023-02-21T08:59:05.872Z,61.45
2023-02-21T09:01:34.886Z,61.94
2023-02-21T09:04:02.965Z,61.88
2023-02-21T09:06:29.752Z,61.93
2023-02-21T09:08:56.726Z,61.83
2023-02-21T09:11:23.674Z,62.06
2023-02-21T09:13:50.723Z,62.36
2023-02-21T09:16:18.007Z,62.34
2023-02-21T09:18:53.835Z,62.19
2023-02-21T09:21:20.621Z,62.24
2023-02-21T09:23:47.281Z,62.75
2023-02-21T09:26:14.015Z,62.54
2023-02-21T09:28:43.896Z,62.88
2023-02-21T09:31:10.644Z,62.90
2023-02-21T09:33:41.097Z,62.62
2023-02-21T09:36:08.917Z,63.13
2023-02-21T09:38:35.689Z,63.34
2023-02-21T09:41:05.846Z,63.88
2023-02-21T09:43:36.896Z,63.78
2023-02-21T09:46:14.292Z,63.92
2023-02-21T09:48:42.180Z,64.40
2023-02-21T09:51:09.238Z,64.13
2023-02-21T09:53:40.311Z,64.15
2023-02-21T09:56:28.822Z,64.68
2023-02-21T09:58:56.665Z,64.40
2023-02-21T10:01:42.185Z,64.61
2023-02-21T10:04:27.324Z,64.67
2023-02-21T10:07:11.528Z,64.75
2023-02-21T10:09:50.027Z,65.07
2023-02-21T10:12:37.049Z,65.28
2023-02-21T10:15:22.338Z,65.67
2023-02-21T10:17:55.116Z,65.62
2023-02-21T10:20:29.960Z,66.05
2023-02-21T10:22:57.088Z,65.78
2023-02-21T10:25:23.776Z,65.73
2023-02-21T10:27:52.489Z,66.24
2023-02-21T10:30:41.017Z,66.21
2023-02-21T10:33:08.476Z,65.81
2023-02-21T10:35:36.979Z,66.33
2023-02-21T10:38:10.152Z,66.14
2023-02-21T10:40:44.562Z,66.70
2023-02-21T10:43:17.538Z,66.66
2023-02-21T10:46:02.847Z,66.23
2023-02-21T10:48:37.462Z,66.17
2023-02-21T10:51:15.130Z,65.75
2023-02-21T10:53:44.296Z,65.88
2023-02-21T10:56:19.873Z,65.58
2023-02-21T10:59:00.114Z,65.74
2023-02-21T11:01:26.867Z,65.52
2023-02-21T11:03:57.298Z,65.61
2023-02-21T11:06:38.444Z,65.68
2023-02-21T11:09:27.125Z,65.62
2023-02-21T11:12:24.080Z,65.85
2023-02-21T11:14:50.779Z,65.47
2023-02-21T11:17:28.615Z,65.46
2023-02-21T11:19:56.861Z,65.64
2023-02-21T11:22:38.791Z,65.51
2023-02-21T11:25:18.028Z,65.21
2023-02-21T11:27:46.509Z,65.22
2023-02-21T11:30:21.403Z,64.83
2023-02-21T11:32:51.748Z,64.76
2023-02-21T11:35:38.001Z,63.83
2023-02-21T11:38:11.372Z,62.65
2023-02-21T11:40:47.860Z,62.51
2023-02-21T11:43:33.780Z,62.04
2023-02-21T11:46:17.867Z,61.12
2023-02-21T11:49:05.966Z,61.11
2023-02-21T11:51:37.095Z,60.78
2023-02-21T11:54:05.641Z,60.75
2023-02-21T11:56:38.708Z,60.60
2023-02-21T11:59:13.544Z,60.59
2023-02-21T12:01:58.349Z,58.35
2023-02-21T12:04:40.872Z,55.71
2023-02-21T12:07:36.214Z,54.97
2023-02-21T12:10:28.533Z,54.59
2023-02-21T12:13:16.586Z,54.10
2023-02-21T12:16:11.776Z,53.22
2023-02-21T12:19:06.243Z,52.19
2023-02-21T12:22:02.804Z,53.20
2023-02-21T12:24:45.497Z,52.27
2023-02-21T12:27:15.992Z,52.46
2023-02-21T12:29:55.963Z,50.95
2023-02-21T12:32:45.984Z,52.08
2023-02-21T12:35:33.951Z,52.57
2023-02-21T12:38:28.412Z,51.30
2023-02-21T12:41:15.627Z,51.92
2023-02-21T12:44:12.757Z,52.02
2023-02-21T12:46:42.182Z,51.59
2023-02-21T12:49:47.273Z,51.16
2023-02-21T12:52:19.508Z,51.14
2023-02-21T12:54:56.761Z,51.56
2023-02-21T12:57:59.612Z,52.06
2023-02-21T13:00:32.026Z,51.69
2023-02-21T13:03:06.557Z,51.88
2023-02-21T13:05:46.638Z,51.99
2023-02-21T13:08:20.998Z,52.01
2023-02-21T13:11:06.606Z,51.56
2023-02-21T13:13:34.277Z,51.43
2023-02-21T13:16:12.915Z,51.14
2023-02-21T13:18:43.677Z,51.09
2023-02-21T13:21:16.722Z,50.87
2023-02-21T13:24:21.309Z,51.20
2023-02-21T13:27:12.957Z,51.38
2023-02-21T13:29:41.895Z,51.02
2023-02-21T13:32:09.562Z,50.96
2023-02-21T13:34:45.861Z,50.87
2023-02-21T13:37:24.276Z,51.19
2023-02-21T13:39:54.841Z,50.13
2023-02-21T13:42:25.160Z,50.58
2023-02-21T13:44:55.533Z,50.59
2023-02-21T13:47:23.301Z,50.76
2023-02-21T13:50:39.514Z,50.74
2023-02-21T13:53:09.523Z,50.45
2023-02-21T13:55:37.258Z,50.45
2023-02-21T13:58:05.363Z,51.10
2023-02-21T14:00:32.163Z,50.93
2023-02-21T14:03:06.290Z,51.04
2023-02-21T14:05:45.458Z,50.24
2023-02-21T14:08:40.581Z,50.51
2023-02-21T14:11:09.645Z,51.46
2023-02-21T14:13:42.417Z,51.36
2023-02-21T14:16:35.862Z,51.93
2023-02-21T14:19:11.637Z,51.06
2023-02-21T14:21:49.129Z,52.29
2023-02-21T14:24:20.102Z,51.45
2023-02-21T14:26:52.865Z,51.73
2023-02-21T14:29:30.676Z,51.41
2023-02-21T14:32:24.162Z,52.12
2023-02-21T14:34:50.963Z,51.65
2023-02-21T14:37:32.629Z,52.75
2023-02-21T14:40:10.470Z,53.13
2023-02-21T14:43:12.135Z,53.18
2023-02-21T14:45:57.417Z,52.82
2023-02-21T14:48:55.022Z,52.26
2023-02-21T14:51:40.153Z,53.75
2023-02-21T14:54:19.892Z,54.03
2023-02-21T14:57:08.344Z,54.38
2023-02-21T14:59:37.994Z,54.38
2023-02-21T15:02:19.258Z,54.57
2023-02-21T15:04:58.410Z,54.50
2023-02-21T15:07:45.399Z,54.39
2023-02-21T15:10:28.276Z,54.59
2023-02-21T15:12:59.641Z,54.49
2023-02-21T15:15:33.600Z,54.72
2023-02-21T15:18:09.851Z,55.11
2023-02-21T15:20:39.631Z,54.90
2023-02-21T15:23:15.575Z,54.65
2023-02-21T15:25:43.984Z,54.83
2023-02-21T15:28:32.773Z,55.18
2023-02-21T15:31:02.664Z,55.41
2023-02-21T15:33:34.798Z,55.73
2023-02-21T15:36:08.238Z,55.35
2023-02-21T15:38:57.446Z,55.91
2023-02-21T15:41:48.484Z,55.79
2023-02-21T15:44:28.571Z,55.94
2023-02-21T15:47:02.796Z,56.11
2023-02-21T15:49:41.218Z,56.45
2023-02-21T15:52:08.146Z,56.87
2023-02-21T15:54:39.281Z,57.11
2023-02-21T15:57:09.246Z,57.10
2023-02-21T15:59:37.461Z,57.68
2023-02-21T16:02:20.937Z,57.51
2023-02-21T16:04:49.546Z,58.46
2023-02-21T16:07:26.617Z,58.46
2023-02-21T16:09:58.435Z,58.70
2023-02-21T16:12:29.895Z,59.20
2023-02-21T16:14:56.526Z,59.30
2023-02-21T16:17:32.577Z,60.00
2023-02-21T16:20:00.439Z,60.25
2023-02-21T16:22:30.087Z,60.56
2023-02-21T16:25:20.174Z,60.50
2023-02-21T16:27:51.215Z,60.87
2023-02-21T16:30:22.787Z,60.96
2023-02-21T16:32:49.819Z,61.34
2023-02-21T16:35:20.553Z,61.22
2023-02-21T16:37:48.467Z,61.23
2023-02-21T16:40:16.227Z,61.56
2023-02-21T16:42:43.278Z,62.14
2023-02-21T16:45:10.406Z,62.15
2023-02-21T16:47:37.363Z,62.33
2023-02-21T16:50:04.930Z,62.73
2023-02-21T16:52:32.228Z,62.88
2023-02-21T16:55:01.707Z,63.10
2023-02-21T16:57:29.074Z,62.76
2023-02-21T16:59:57.629Z,63.02
2023-02-21T17:02:24.942Z,63.17
2023-02-21T17:04:51.717Z,63.04
2023-02-21T17:07:20.735Z,63.31
2023-02-21T17:09:47.584Z,63.35
2023-02-21T17:12:14.455Z,63.34
2023-02-21T17:14:41.546Z,63.46
2023-02-21T17:17:08.484Z,63.74
2023-02-21T17:19:35.487Z,63.86
2023-02-21T17:22:03.099Z,63.64
2023-02-21T17:24:31.051Z,63.62
2023-02-21T17:27:01.699Z,63.61
2023-02-21T17:29:29.438Z,64.06
2023-02-21T17:31:56.724Z,63.90
2023-02-21T17:34:23.467Z,64.32
2023-02-21T17:36:53.792Z,64.21
2023-02-21T17:42:18.165Z,63.64
2023-02-21T17:44:47.368Z,63.07
2023-02-21T17:47:14.597Z,62.77
2023-02-21T17:49:41.845Z,62.50
2023-02-21T17:52:08.699Z,61.85
2023-02-21T17:54:35.496Z,62.04
2023-02-21T17:57:04.838Z,61.50
2023-02-21T17:59:38.576Z,61.37
2023-02-21T18:02:17.125Z,61.02
2023-02-21T18:04:53.244Z,60.71
2023-02-21T18:07:22.809Z,60.94
2023-02-21T18:09:49.559Z,60.51
2023-02-21T18:12:17.034Z,60.51
2023-02-21T18:14:43.820Z,60.13
2023-02-21T18:17:15.131Z,59.87
2023-02-21T18:19:48.879Z,59.73
2023-02-21T18:22:25.709Z,59.95
2023-02-21T18:24:52.713Z,59.60
2023-02-21T18:27:20.230Z,59.73
2023-02-21T18:29:47.083Z,59.55
2023-02-21T18:32:17.003Z,59.38
2023-02-21T18:34:49.558Z,59.18
2023-02-21T18:37:27.651Z,59.07
2023-02-21T18:40:01.157Z,59.14
2023-02-21T18:42:34.628Z,59.24
2023-02-21T18:45:07.483Z,59.06
2023-02-21T18:47:35.383Z,58.96
2023-02-21T18:50:02.431Z,58.85
2023-02-21T18:52:29.726Z,58.64
2023-02-21T18:55:03.158Z,58.96
2023-02-21T18:57:30.606Z,58.52
2023-02-21T18:59:58.025Z,58.49
2023-02-21T19:02:24.823Z,58.56
2023-02-21T19:04:51.686Z,58.59
2023-02-21T19:07:18.702Z,58.41
2023-02-21T19:09:46.950Z,58.46
2023-02-21T19:12:13.832Z,58.78
2023-02-21T19:14:40.608Z,58.51
2023-02-21T19:17:14.535Z,58.59
2023-02-21T19:19:45.827Z,58.74
2023-02-21T19:22:14.161Z,58.52
2023-02-21T19:24:44.921Z,58.37
2023-02-21T19:27:16.386Z,58.69
2023-02-21T19:29:43.392Z,58.20
2023-02-21T19:32:10.190Z,58.18
2023-02-21T19:34:37.224Z,58.30
2023-02-21T19:37:03.937Z,58.56
2023-02-21T19:39:30.770Z,58.23
2023-02-21T19:41:57.514Z,58.41
2023-02-21T19:44:25.507Z,58.55
2023-02-21T19:46:52.314Z,58.23
2023-02-21T19:49:20.515Z,58.66
2023-02-21T19:51:50.424Z,58.19
2023-02-21T19:54:19.557Z,58.30
2023-02-21T19:56:46.595Z,58.55
2023-02-21T19:59:13.643Z,58.58
2023-02-21T20:01:40.515Z,58.48
2023-02-21T20:04:08.047Z,58.32
2023-02-21T20:06:36.514Z,58.28
2023-02-21T20:09:06.204Z,58.16
2023-02-21T20:11:33.012Z,57.73
2023-02-21T20:13:59.877Z,58.15
2023-02-21T20:16:28.145Z,57.92
2023-02-21T20:18:57.398Z,58.33
2023-02-21T20:21:32.762Z,58.09
2023-02-21T20:24:00.033Z,58.17
2023-02-21T20:26:27.957Z,58.36
2023-02-21T20:28:55.705Z,58.21
2023-02-21T20:31:26.063Z,58.85
2023-02-21T20:33:52.918Z,58.57
2023-02-21T20:36:27.469Z,58.83
2023-02-21T20:38:54.946Z,58.31
2023-02-21T20:41:22.115Z,58.26
2023-02-21T20:43:48.894Z,58.34
2023-02-21T20:46:22.870Z,57.98
2023-02-21T20:48:51.098Z,58.23
2023-02-21T20:51:28.341Z,57.99
2023-02-21T20:53:55.301Z,58.42
2023-02-21T20:56:23.667Z,58.19
2023-02-21T20:58:50.739Z,58.38
2023-02-21T21:01:17.860Z,58.30
2023-02-21T21:03:46.821Z,58.16
2023-02-21T21:06:13.511Z,58.15
2023-02-21T21:08:40.478Z,58.45
2023-02-21T21:11:08.823Z,57.89
2023-02-21T21:13:36.659Z,58.00
2023-02-21T21:16:05.236Z,57.97
2023-02-21T21:18:32.286Z,57.83
2023-02-21T21:20:59.104Z,58.21
2023-02-21T21:23:26.078Z,58.05
2023-02-21T21:25:53.442Z,57.74
2023-02-21T21:28:20.372Z,58.21
2023-02-21T21:30:48.297Z,58.05
2023-02-21T21:33:21.777Z,58.14
2023-02-21T21:35:49.781Z,57.79
2023-02-21T21:38:18.924Z,57.74
2023-02-21T21:40:47.831Z,57.67
2023-02-21T21:43:15.289Z,57.81
2023-02-21T21:45:44.513Z,58.16
2023-02-21T21:48:14.668Z,58.03
2023-02-21T21:50:42.273Z,58.01
2023-02-21T21:53:10.125Z,58.27
2023-02-21T21:55:38.179Z,58.21
2023-02-21T21:58:10.599Z,57.86
2023-02-21T22:00:46.424Z,57.76
2023-02-21T22:03:18.317Z,58.18
2023-02-21T22:05:45.798Z,57.69
2023-02-21T22:08:22.505Z,57.82
2023-02-21T22:10:49.609Z,57.76
2023-02-21T22:13:20.686Z,57.67
2023-02-21T22:15:48.041Z,57.91
2023-02-21T22:18:19.316Z,57.64
2023-02-21T22:20:49.804Z,58.01
2023-02-21T22:23:21.117Z,57.97
2023-02-21T22:25:48.440Z,58.07
2023-02-21T22:28:15.257Z,58.02
2023-02-21T22:30:42.230Z,58.11
2023-02-21T22:33:13.487Z,57.98
2023-02-21T22:35:41.402Z,57.88
2023-02-21T22:38:14.168Z,58.08
2023-02-21T22:40:41.833Z,57.47
2023-02-21T22:43:13.773Z,57.83
2023-02-21T22:45:44.255Z,57.66
2023-02-21T22:48:11.226Z,57.39
2023-02-21T22:50:39.548Z,57.30
2023-02-21T22:53:09.425Z,57.01
2023-02-21T22:55:37.227Z,57.52
2023-02-21T22:58:06.533Z,57.03
2023-02-21T23:00:34.662Z,57.28
2023-02-21T23:03:13.849Z,57.04
2023-02-21T23:05:45.549Z,57.01
2023-02-21T23:08:14.784Z,56.94
2023-02-21T23:10:42.212Z,57.38
2023-02-21T23:13:14.054Z,57.33
2023-02-21T23:15:44.711Z,57.28
2023-02-21T23:18:12.016Z,57.24
2023-02-21T23:20:38.754Z,57.14
2023-02-21T23:23:05.524Z,56.87
2023-02-21T23:25:36.549Z,57.30
2023-02-21T23:28:08.703Z,57.09
2023-02-21T23:30:42.937Z,56.88
2023-02-21T23:33:23.091Z,57.17
2023-02-21T23:35:51.463Z,56.86
2023-02-21T23:38:21.566Z,57.06
2023-02-21T23:40:50.530Z,56.59
2023-02-21T23:43:18.279Z,56.70
2023-02-21T23:45:48.271Z,56.39
2023-02-21T23:48:15.729Z,56.56
2023-02-21T23:50:47.041Z,56.32
2023-02-21T23:53:17.082Z,56.47
2023-02-21T23:55:46.630Z,56.38
2023-02-21T23:58:15.549Z,56.87
